Time;durP1;ratioP1;P1;durP2;ratioP2;P2;SDS_P1;SDS_P2;PMS_P1;PMS_P2;Temp;Humidity;BMP_temperature;BMP_pressure;BME280_temperature;BME280_humidity;BME280_pressure;Samples;Min_cycle;Max_cycle;Signal;HPM_P1;HPM_P2
2023/04/11 00:02:11;;;;;;;33.53;5.07;;;9.40;99.90;;;;;;5100848;28;20031;-74
2023/04/11 00:04:37;;;;;;;40.80;4.70;;;9.40;99.90;;;;;;5109405;28;20024;-73
2023/04/11 00:07:04;;;;;;;30.80;4.53;;;9.50;99.90;;;;;;5092751;28;20110;-74
2023/04/11 00:09:30;;;;;;;32.53;4.32;;;9.50;99.90;;;;;;5102274;28;20019;-74
2023/04/11 00:11:56;;;;;;;33.05;4.65;;;9.50;99.90;;;;;;5099715;28;20024;-74
2023/04/11 00:14:21;;;;;;;36.40;4.22;;;9.50;99.90;;;;;;5102355;28;20541;-74
2023/04/11 00:16:48;;;;;;;38.05;4.25;;;9.50;99.90;;;;;;5086079;28;20024;-74
2023/04/11 00:19:15;;;;;;;39.92;4.80;;;9.50;99.90;;;;;;5101312;28;20497;-74
2023/04/11 00:21:42;;;;;;;36.33;4.90;;;9.50;99.90;;;;;;5103846;28;20394;-74
2023/04/11 00:24:08;;;;;;;42.60;5.20;;;9.60;99.90;;;;;;5095335;28;20044;-74
2023/04/11 00:26:34;;;;;;;38.15;5.13;;;9.60;99.90;;;;;;5095163;28;20061;-74
2023/04/11 00:28:59;;;;;;;29.95;3.72;;;9.60;99.90;;;;;;5101653;28;20024;-74
2023/04/11 00:31:25;;;;;;;41.72;4.68;;;9.60;99.90;;;;;;5097566;28;20032;-73
2023/04/11 00:33:51;;;;;;;39.90;5.10;;;9.70;99.90;;;;;;5109722;28;20031;-74
2023/04/11 00:36:16;;;;;;;27.35;3.97;;;9.70;99.90;;;;;;5097614;28;20019;-74
2023/04/11 00:38:43;;;;;;;37.03;4.45;;;9.70;99.90;;;;;;5108074;28;20068;-74
2023/04/11 00:41:09;;;;;;;34.63;5.03;;;9.70;99.90;;;;;;5099084;28;20017;-74
2023/04/11 00:43:35;;;;;;;30.92;4.63;;;9.80;99.90;;;;;;5099311;28;20435;-75
2023/04/11 00:46:01;;;;;;;31.98;5.30;;;9.80;99.90;;;;;;5093143;28;20107;-74
2023/04/11 00:48:27;;;;;;;43.47;5.32;;;9.80;99.90;;;;;;5108275;28;20244;-74
2023/04/11 00:50:54;;;;;;;28.20;4.38;;;9.80;99.90;;;;;;5111040;28;20034;-74
2023/04/11 00:53:20;;;;;;;34.65;5.10;;;9.80;99.90;;;;;;5098353;28;20475;-74
2023/04/11 00:55:46;;;;;;;35.60;4.43;;;9.80;99.90;;;;;;5108896;28;20019;-75
2023/04/11 00:58:12;;;;;;;26.60;3.88;;;9.80;99.90;;;;;;5109186;28;20031;-74
2023/04/11 01:00:38;;;;;;;32.97;4.00;;;9.80;99.90;;;;;;5110040;28;20027;-75
2023/04/11 01:03:03;;;;;;;28.27;4.10;;;9.80;99.90;;;;;;5109419;28;20020;-74
2023/04/11 01:05:32;;;;;;;23.73;3.92;;;9.80;99.90;;;;;;5109229;28;20042;-74
2023/04/11 01:07:58;;;;;;;21.85;3.53;;;9.80;99.90;;;;;;5110658;28;20024;-74
2023/04/11 01:10:27;;;;;;;17.75;3.40;;;9.80;99.90;;;;;;5109749;28;20024;-75
2023/04/11 01:12:54;;;;;;;21.30;2.80;;;9.80;99.90;;;;;;5110193;28;20020;-74
2023/04/11 01:15:20;;;;;;;24.42;3.03;;;9.80;99.90;;;;;;5108952;28;20094;-74
2023/04/11 01:17:46;;;;;;;22.33;2.80;;;9.90;99.90;;;;;;5104565;28;20066;-74
2023/04/11 01:20:13;;;;;;;14.40;2.35;;;9.90;99.90;;;;;;5109715;28;20032;-74
2023/04/11 01:22:40;;;;;;;21.60;2.30;;;9.90;99.90;;;;;;5096732;28;20085;-74
2023/04/11 01:25:06;;;;;;;16.13;2.05;;;9.90;99.90;;;;;;5109926;28;20026;-74
2023/04/11 01:27:33;;;;;;;17.52;2.50;;;9.90;99.90;;;;;;5108102;28;20083;-74
2023/04/11 01:29:59;;;;;;;18.90;2.47;;;9.90;99.90;;;;;;5107732;28;20028;-74
2023/04/11 01:32:25;;;;;;;14.48;1.80;;;9.80;99.90;;;;;;5109572;28;20026;-74
2023/04/11 01:34:55;;;;;;;17.85;2.58;;;9.80;99.90;;;;;;5101002;28;20873;-74
2023/04/11 01:37:21;;;;;;;15.48;2.30;;;9.80;99.90;;;;;;5103776;28;20067;-74
2023/04/11 01:39:46;;;;;;;18.58;2.30;;;9.80;99.90;;;;;;5108068;28;20071;-74
2023/04/11 01:42:13;;;;;;;23.88;2.33;;;9.80;99.90;;;;;;5111892;28;20024;-74
2023/04/11 01:44:41;;;;;;;20.45;2.70;;;9.70;99.90;;;;;;5110454;28;20024;-74
2023/04/11 01:47:06;;;;;;;17.45;2.45;;;9.70;99.90;;;;;;5112344;28;20496;-74
2023/04/11 01:49:32;;;;;;;15.45;2.28;;;9.70;99.90;;;;;;5105857;28;20039;-74
2023/04/11 01:51:58;;;;;;;19.73;2.95;;;9.70;99.90;;;;;;5111572;28;20031;-74
2023/04/11 01:54:24;;;;;;;21.60;3.75;;;9.70;99.90;;;;;;5108684;28;20071;-74
2023/04/11 01:56:51;;;;;;;16.23;2.78;;;9.70;99.90;;;;;;5111295;28;20051;-74
2023/04/11 01:59:16;;;;;;;24.95;2.85;;;9.70;99.90;;;;;;5111616;28;20099;-74
2023/04/11 02:01:43;;;;;;;25.38;3.00;;;9.70;99.90;;;;;;5110419;28;20115;-74
2023/04/11 02:04:09;;;;;;;19.80;2.85;;;9.70;99.90;;;;;;5113222;28;20023;-73
2023/04/11 02:06:34;;;;;;;20.92;3.00;;;9.70;99.90;;;;;;5113844;28;20073;-74
2023/04/11 02:09:00;;;;;;;14.55;2.65;;;9.70;99.90;;;;;;5109629;28;20020;-74
2023/04/11 02:11:26;;;;;;;20.08;2.83;;;9.70;99.90;;;;;;5105002;28;20020;-74
2023/04/11 02:13:51;;;;;;;16.52;2.38;;;9.70;99.90;;;;;;5113646;28;20042;-74
2023/04/11 02:16:17;;;;;;;24.25;2.58;;;9.70;99.90;;;;;;5113600;28;20024;-74
2023/04/11 02:18:44;;;;;;;11.43;2.05;;;9.60;99.90;;;;;;5110139;28;20020;-74
2023/04/11 02:21:10;;;;;;;16.92;2.65;;;9.60;99.90;;;;;;5102245;28;20031;-74
2023/04/11 02:23:36;;;;;;;19.27;2.58;;;9.60;99.90;;;;;;5102141;28;20058;-74
2023/04/11 02:26:02;;;;;;;18.75;2.40;;;9.60;99.90;;;;;;5113024;28;20474;-73
2023/04/11 02:28:28;;;;;;;22.77;3.30;;;9.60;99.90;;;;;;5112815;28;20043;-73
2023/04/11 02:30:54;;;;;;;16.10;3.08;;;9.50;99.90;;;;;;5106391;28;20036;-74
2023/04/11 02:33:21;;;;;;;16.63;2.45;;;9.50;99.90;;;;;;5109241;28;20484;-74
2023/04/11 02:35:46;;;;;;;19.67;2.50;;;9.50;99.90;;;;;;5112559;28;20024;-73
2023/04/11 02:38:12;;;;;;;18.52;2.55;;;9.50;99.90;;;;;;5099056;28;20032;-74
2023/04/11 02:40:38;;;;;;;26.55;2.95;;;9.40;99.90;;;;;;5094414;28;20549;-74
2023/04/11 02:43:04;;;;;;;21.42;2.92;;;9.40;99.90;;;;;;5112031;28;20098;-74
2023/04/11 02:45:30;;;;;;;13.75;2.28;;;9.30;99.90;;;;;;5089761;28;20032;-74
2023/04/11 02:47:55;;;;;;;19.10;2.60;;;9.30;99.90;;;;;;5108650;28;20150;-74
2023/04/11 02:50:21;;;;;;;21.02;2.83;;;9.20;99.90;;;;;;5102449;28;20036;-74
2023/04/11 02:52:48;;;;;;;18.13;2.30;;;9.20;99.90;;;;;;5102885;28;20290;-74
2023/04/11 02:55:13;;;;;;;15.88;2.67;;;9.20;99.90;;;;;;5111894;28;20437;-74
2023/04/11 02:57:39;;;;;;;16.05;2.95;;;9.10;99.90;;;;;;5111618;28;20015;-73
2023/04/11 03:00:06;;;;;;;21.98;2.80;;;9.10;99.90;;;;;;5102991;28;20391;-74
2023/04/11 03:02:32;;;;;;;20.88;2.55;;;9.10;99.90;;;;;;5094078;28;20364;-74
2023/04/11 03:05:02;;;;;;;24.30;3.28;;;9.10;99.90;;;;;;5108086;28;20102;-74
2023/04/11 03:07:28;;;;;;;17.77;2.63;;;9.10;99.90;;;;;;5106307;28;20032;-74
2023/04/11 03:09:53;;;;;;;19.52;2.47;;;9.10;99.90;;;;;;5105300;28;20474;-74
2023/04/11 03:12:19;;;;;;;16.98;1.90;;;9.00;99.90;;;;;;5110236;28;20016;-74
2023/04/11 03:14:44;;;;;;;19.05;2.40;;;9.00;99.90;;;;;;5111949;28;20493;-73
2023/04/11 03:17:10;;;;;;;18.42;2.58;;;9.00;99.90;;;;;;5108720;28;20024;-73
2023/04/11 03:19:35;;;;;;;21.13;2.53;;;9.00;99.90;;;;;;5105396;28;20058;-73
2023/04/11 03:22:01;;;;;;;17.98;2.42;;;9.00;99.90;;;;;;5100930;28;20046;-73
2023/04/11 03:24:26;;;;;;;18.20;2.33;;;9.00;99.90;;;;;;5111586;28;20024;-74
2023/04/11 03:26:52;;;;;;;14.85;2.15;;;9.00;99.90;;;;;;5111192;28;20032;-74
2023/04/11 03:29:18;;;;;;;13.70;2.08;;;9.00;99.90;;;;;;5111712;28;20420;-73
2023/04/11 03:31:43;;;;;;;15.45;1.85;;;9.00;99.90;;;;;;5107687;28;20028;-73
2023/04/11 03:34:09;;;;;;;15.38;2.25;;;8.90;99.90;;;;;;5100017;28;20058;-74
2023/04/11 03:36:34;;;;;;;14.38;2.13;;;8.90;99.90;;;;;;5109083;28;20024;-74
2023/04/11 03:39:00;;;;;;;15.30;2.20;;;8.90;99.90;;;;;;5092786;28;20020;-73
2023/04/11 03:41:25;;;;;;;12.55;2.10;;;8.90;99.90;;;;;;5095000;28;20024;-73
2023/04/11 03:43:51;;;;;;;16.40;2.40;;;8.80;99.90;;;;;;5094301;28;20090;-74
2023/04/11 03:46:17;;;;;;;19.35;2.42;;;8.80;99.90;;;;;;5094217;28;20131;-74
2023/04/11 03:48:42;;;;;;;13.27;2.25;;;8.80;99.90;;;;;;5111066;28;20047;-74
2023/04/11 03:51:08;;;;;;;13.68;1.73;;;8.80;99.90;;;;;;5107728;28;20101;-74
2023/04/11 03:53:34;;;;;;;10.07;1.98;;;8.80;99.90;;;;;;5101377;28;20419;-74
2023/04/11 03:56:00;;;;;;;12.98;1.80;;;8.80;99.90;;;;;;5097559;28;20024;-75
2023/04/11 03:58:25;;;;;;;10.77;1.75;;;8.70;99.90;;;;;;5111520;28;20055;-74
2023/04/11 04:00:51;;;;;;;10.95;1.95;;;8.70;99.90;;;;;;5109539;28;20152;-74
2023/04/11 04:03:17;;;;;;;18.42;1.88;;;8.60;99.90;;;;;;5110981;28;20023;-74
2023/04/11 04:05:42;;;;;;;13.52;2.20;;;8.60;99.90;;;;;;5107974;28;20038;-74
2023/04/11 04:08:08;;;;;;;10.60;1.85;;;8.60;99.90;;;;;;5100243;28;20023;-74
2023/04/11 04:10:33;;;;;;;12.85;1.90;;;8.60;99.90;;;;;;5107749;28;20067;-74
2023/04/11 04:12:59;;;;;;;12.77;2.78;;;8.60;99.90;;;;;;5090752;28;20456;-74
2023/04/11 04:15:24;;;;;;;10.77;2.35;;;8.60;99.90;;;;;;5092939;28;20558;-74
2023/04/11 04:17:50;;;;;;;15.40;1.95;;;8.60;99.90;;;;;;5110556;28;20035;-74
2023/04/11 04:20:16;;;;;;;14.90;2.30;;;8.60;99.90;;;;;;5108051;28;20467;-74
2023/04/11 04:22:46;;;;;;;17.17;1.88;;;8.50;99.90;;;;;;5100197;28;20023;-74
2023/04/11 04:25:14;;;;;;;18.33;1.90;;;8.60;99.90;;;;;;5110240;28;20020;-74
2023/04/11 04:27:43;;;;;;;15.10;2.22;;;8.50;99.90;;;;;;5110107;28;20018;-74
2023/04/11 04:30:14;;;;;;;11.23;2.00;;;8.60;99.90;;;;;;5105414;28;20107;-74
2023/04/11 04:32:46;;;;;;;17.80;2.17;;;8.50;99.90;;;;;;5108535;28;20379;-74
2023/04/11 04:35:15;;;;;;;10.82;1.73;;;8.50;99.90;;;;;;5103171;28;20032;-74
2023/04/11 04:37:44;;;;;;;10.30;1.98;;;8.50;99.90;;;;;;5090515;28;20490;-74
2023/04/11 04:40:12;;;;;;;17.30;2.35;;;8.50;99.90;;;;;;5108829;28;20043;-74
2023/04/11 04:42:40;;;;;;;17.77;2.22;;;8.50;99.90;;;;;;5109902;28;20031;-74
2023/04/11 04:45:06;;;;;;;11.50;1.80;;;8.50;99.90;;;;;;5090532;28;20024;-75
2023/04/11 04:47:34;;;;;;;10.45;1.83;;;8.50;99.90;;;;;;5104089;28;20490;-74
2023/04/11 04:50:00;;;;;;;16.88;2.25;;;8.50;99.90;;;;;;5110233;28;20456;-74
2023/04/11 04:52:27;;;;;;;17.02;2.45;;;8.50;99.90;;;;;;5109643;28;20011;-74
2023/04/11 04:54:56;;;;;;;16.45;2.42;;;8.50;99.90;;;;;;5103990;28;20502;-74
2023/04/11 04:57:23;;;;;;;14.27;2.45;;;8.60;99.90;;;;;;5108839;28;20424;-74
2023/04/11 04:59:49;;;;;;;17.30;2.28;;;8.60;99.90;;;;;;5100435;28;20023;-74
2023/04/11 05:02:16;;;;;;;13.40;2.13;;;8.60;99.90;;;;;;5107177;28;20020;-75
2023/04/11 05:04:43;;;;;;;14.68;2.40;;;8.70;99.90;;;;;;5090820;28;20011;-74
2023/04/11 05:07:13;;;;;;;14.23;2.33;;;8.70;99.90;;;;;;5090522;28;20024;-74
2023/04/11 05:09:39;;;;;;;13.40;1.92;;;8.70;99.90;;;;;;5093212;28;20016;-74
2023/04/11 05:12:05;;;;;;;19.15;2.60;;;8.70;99.90;;;;;;5095794;28;20023;-74
2023/04/11 05:14:30;;;;;;;21.50;2.97;;;8.80;99.90;;;;;;5113058;28;20020;-74
2023/04/11 05:16:56;;;;;;;15.38;2.53;;;8.80;99.90;;;;;;5107771;28;20020;-74
2023/04/11 05:19:21;;;;;;;24.17;2.45;;;8.80;99.90;;;;;;5107933;28;20473;-74
2023/04/11 05:21:47;;;;;;;19.30;2.58;;;8.90;99.90;;;;;;5112338;28;20028;-74
2023/04/11 05:24:12;;;;;;;19.92;2.80;;;8.90;99.90;;;;;;5108581;28;20035;-74
2023/04/11 05:26:38;;;;;;;21.00;2.95;;;8.90;99.90;;;;;;5109654;28;20457;-74
2023/04/11 05:29:05;;;;;;;20.67;2.90;;;8.90;99.90;;;;;;5105543;28;20020;-75
2023/04/11 05:31:31;;;;;;;20.63;3.30;;;8.90;99.90;;;;;;5111527;28;20024;-74
2023/04/11 05:33:57;;;;;;;18.15;2.80;;;8.90;99.90;;;;;;5107231;28;20509;-74
2023/04/11 05:36:23;;;;;;;26.60;3.40;;;9.00;99.90;;;;;;5111495;28;20027;-74
2023/04/11 05:38:49;;;;;;;25.70;3.20;;;8.90;99.90;;;;;;5093356;28;20019;-74
2023/04/11 05:41:15;;;;;;;17.88;2.58;;;9.00;99.90;;;;;;5092924;28;20382;-74
2023/04/11 05:43:41;;;;;;;23.80;3.33;;;8.90;99.90;;;;;;5100889;28;20047;-74
2023/04/11 05:46:07;;;;;;;17.58;2.85;;;9.00;99.90;;;;;;5109743;28;20037;-74
2023/04/11 05:48:33;;;;;;;22.98;2.92;;;8.90;99.90;;;;;;5111114;28;20055;-74
2023/04/11 05:50:59;;;;;;;14.07;2.50;;;8.90;99.90;;;;;;5103920;28;20059;-74
2023/04/11 05:53:25;;;;;;;19.55;2.83;;;8.90;99.90;;;;;;5106824;28;20034;-74
2023/04/11 05:55:50;;;;;;;18.90;2.47;;;8.90;99.90;;;;;;5097679;28;20106;-74
2023/04/11 05:58:16;;;;;;;20.27;2.58;;;9.00;99.90;;;;;;5111480;28;20019;-73
2023/04/11 06:00:41;;;;;;;15.13;2.50;;;8.90;99.90;;;;;;5109254;28;20024;-74
2023/04/11 06:03:08;;;;;;;24.45;3.03;;;9.00;99.90;;;;;;5101266;28;20505;-74
2023/04/11 06:05:34;;;;;;;18.58;2.90;;;9.00;99.90;;;;;;5099375;28;20321;-74
2023/04/11 06:08:01;;;;;;;19.92;2.60;;;9.00;99.90;;;;;;5108180;28;20019;-75
2023/04/11 06:10:28;;;;;;;24.33;3.20;;;9.00;99.90;;;;;;5110744;28;20036;-74
2023/04/11 06:12:54;;;;;;;17.45;2.90;;;9.00;99.90;;;;;;5108230;28;20052;-74
2023/04/11 06:15:20;;;;;;;18.40;2.35;;;9.00;99.90;;;;;;5105916;28;20481;-73
2023/04/11 06:17:46;;;;;;;15.45;2.05;;;9.00;99.90;;;;;;5102840;28;20058;-74
2023/04/11 06:20:12;;;;;;;19.50;2.45;;;9.10;99.90;;;;;;5106236;28;20122;-73
2023/04/11 06:22:39;;;;;;;14.00;2.33;;;9.10;99.90;;;;;;5109591;28;20026;-73
2023/04/11 06:25:05;;;;;;;18.25;3.33;;;9.10;99.90;;;;;;5097935;28;20012;-74
2023/04/11 06:27:31;;;;;;;18.55;2.80;;;9.10;99.90;;;;;;5108098;28;20451;-73
2023/04/11 06:29:56;;;;;;;19.17;2.55;;;9.20;99.90;;;;;;5113087;28;20024;-73
2023/04/11 06:32:24;;;;;;;19.05;2.75;;;9.30;99.90;;;;;;5111151;28;20035;-73
2023/04/11 06:34:50;;;;;;;18.90;2.47;;;9.30;99.90;;;;;;5110985;28;20020;-73
2023/04/11 06:37:15;;;;;;;17.75;2.50;;;9.30;99.90;;;;;;5106596;28;20378;-73
2023/04/11 06:39:41;;;;;;;13.93;2.17;;;9.30;99.90;;;;;;5096753;28;20475;-73
2023/04/11 06:42:06;;;;;;;15.88;2.33;;;9.30;99.90;;;;;;5112602;28;20038;-74
2023/04/11 06:44:32;;;;;;;17.80;2.67;;;9.30;99.90;;;;;;5102272;28;20019;-74
2023/04/11 06:46:58;;;;;;;15.45;2.70;;;9.20;99.90;;;;;;5105613;28;20051;-74
2023/04/11 06:49:24;;;;;;;15.48;2.90;;;9.30;99.90;;;;;;5110406;28;20063;-74
2023/04/11 06:51:50;;;;;;;14.23;2.22;;;9.30;99.90;;;;;;5111563;28;20058;-73
2023/04/11 06:54:17;;;;;;;15.23;2.10;;;9.30;99.90;;;;;;5105816;28;20057;-73
2023/04/11 06:56:43;;;;;;;12.98;2.63;;;9.30;99.90;;;;;;5109222;28;20073;-73
2023/04/11 06:59:09;;;;;;;17.13;2.45;;;9.30;99.90;;;;;;5113810;28;20517;-74
2023/04/11 07:01:37;;;;;;;14.63;2.35;;;9.30;99.90;;;;;;5111478;28;20062;-73
2023/04/11 07:04:06;;;;;;;19.55;2.55;;;9.30;99.90;;;;;;5091962;28;20139;-74
2023/04/11 07:06:34;;;;;;;16.17;2.65;;;9.30;99.90;;;;;;5111264;28;20032;-74
2023/04/11 07:09:01;;;;;;;12.85;2.20;;;9.30;99.90;;;;;;5108425;28;20081;-74
2023/04/11 07:11:27;;;;;;;16.38;2.25;;;9.30;99.90;;;;;;5101626;28;20030;-74
2023/04/11 07:13:54;;;;;;;21.27;2.78;;;9.40;99.90;;;;;;5111316;28;20068;-74
2023/04/11 07:16:20;;;;;;;15.73;2.22;;;9.40;99.90;;;;;;5110014;28;20047;-73
2023/04/11 07:18:46;;;;;;;17.77;2.15;;;9.40;99.90;;;;;;5107822;28;20056;-73
2023/04/11 07:21:13;;;;;;;13.98;2.35;;;9.40;99.90;;;;;;5091344;28;20042;-74
2023/04/11 07:23:39;;;;;;;20.05;2.83;;;9.50;99.90;;;;;;5092426;28;20030;-74
2023/04/11 07:26:09;;;;;;;23.27;2.97;;;9.50;99.90;;;;;;5094670;28;20264;-73
2023/04/11 07:28:36;;;;;;;12.82;2.45;;;9.60;99.90;;;;;;5109207;28;20103;-74
2023/04/11 07:31:03;;;;;;;18.50;3.05;;;9.60;99.90;;;;;;5106304;28;20070;-74
2023/04/11 07:33:29;;;;;;;28.15;3.08;;;9.70;99.90;;;;;;5108857;28;20077;-75
2023/04/11 07:35:54;;;;;;;20.48;2.70;;;9.70;99.90;;;;;;5109881;28;20054;-74
2023/04/11 07:38:28;;;;;;;19.10;3.13;;;9.80;99.90;;;;;;5092772;28;20028;-74
2023/04/11 07:40:55;;;;;;;17.30;2.72;;;9.90;99.90;;;;;;5101566;28;20028;-74
2023/04/11 07:43:20;;;;;;;18.33;2.45;;;9.90;99.90;;;;;;5103818;28;20099;-75
2023/04/11 07:45:46;;;;;;;16.15;2.75;;;10.00;99.90;;;;;;5102279;28;20154;-73
2023/04/11 07:48:12;;;;;;;13.88;2.70;;;10.00;99.90;;;;;;5097825;28;20048;-73
2023/04/11 07:50:37;;;;;;;12.05;2.10;;;10.00;99.90;;;;;;5099904;28;20340;-74
2023/04/11 07:53:03;;;;;;;18.02;2.40;;;9.90;99.90;;;;;;5112500;28;20041;-74
2023/04/11 07:55:28;;;;;;;11.27;2.20;;;9.90;99.90;;;;;;5096534;28;20073;-74
2023/04/11 07:57:54;;;;;;;15.10;2.13;;;10.00;99.90;;;;;;5094147;28;20034;-74
2023/04/11 08:00:21;;;;;;;18.88;3.08;;;10.00;99.90;;;;;;5104982;28;20023;-75
2023/04/11 08:02:46;;;;;;;15.20;2.58;;;10.00;99.90;;;;;;5109034;28;20505;-74
2023/04/11 08:05:12;;;;;;;16.30;2.40;;;10.10;99.90;;;;;;5110134;28;20024;-75
2023/04/11 08:07:38;;;;;;;16.23;2.38;;;10.10;99.90;;;;;;5110184;28;20320;-74
2023/04/11 08:10:04;;;;;;;12.82;2.15;;;10.10;99.90;;;;;;5110898;28;20478;-74
2023/04/11 08:12:30;;;;;;;13.77;2.13;;;10.00;99.90;;;;;;5110198;28;20024;-74
2023/04/11 08:14:55;;;;;;;19.30;2.65;;;10.00;99.90;;;;;;5110559;28;20024;-74
2023/04/11 08:17:24;;;;;;;12.48;2.03;;;10.00;99.90;;;;;;5106210;28;20394;-75
2023/04/11 08:19:50;;;;;;;18.77;2.47;;;10.10;99.90;;;;;;5110706;28;20378;-74
2023/04/11 08:22:16;;;;;;;17.05;2.40;;;10.20;99.90;;;;;;5110751;28;20012;-74
2023/04/11 08:24:42;;;;;;;15.70;2.25;;;10.20;99.90;;;;;;5108860;28;20043;-74
2023/04/11 08:27:08;;;;;;;15.20;2.40;;;10.20;99.90;;;;;;5102212;28;20024;-74
2023/04/11 08:29:33;;;;;;;17.25;2.47;;;10.30;99.90;;;;;;5110650;28;20024;-75
2023/04/11 08:31:59;;;;;;;17.27;2.63;;;10.30;99.90;;;;;;5097715;28;20028;-75
2023/04/11 08:34:25;;;;;;;13.82;2.10;;;10.40;99.90;;;;;;5098689;28;20020;-75
2023/04/11 08:36:50;;;;;;;13.50;2.42;;;10.50;99.90;;;;;;5086532;28;20027;-75
2023/04/11 08:39:16;;;;;;;15.93;2.30;;;10.60;99.90;;;;;;5110486;28;20111;-74
2023/04/11 08:41:41;;;;;;;15.27;2.15;;;10.50;99.90;;;;;;5110083;28;20024;-74
2023/04/11 08:44:13;;;;;;;12.90;2.10;;;10.60;99.90;;;;;;5111813;28;20436;-74
2023/04/11 08:46:42;;;;;;;14.85;2.30;;;10.50;99.90;;;;;;5107302;28;20044;-74
2023/04/11 08:49:09;;;;;;;18.20;2.20;;;10.50;99.90;;;;;;5107323;28;20027;-75
2023/04/11 08:51:35;;;;;;;10.15;2.15;;;10.60;99.90;;;;;;5114742;28;20032;-74
2023/04/11 08:54:04;;;;;;;11.48;1.77;;;10.70;99.90;;;;;;5114394;28;20486;-74
2023/04/11 08:56:30;;;;;;;11.30;1.95;;;10.70;99.90;;;;;;5107157;28;20048;-74
2023/04/11 08:58:56;;;;;;;6.90;1.75;;;10.80;99.90;;;;;;5094380;28;20016;-74
2023/04/11 09:01:33;;;;;;;11.45;1.90;;;10.90;99.90;;;;;;5101396;28;20016;-74
2023/04/11 09:04:01;;;;;;;12.52;1.90;;;11.00;99.90;;;;;;5100322;28;20020;-74
2023/04/11 09:06:31;;;;;;;12.82;2.00;;;11.00;99.90;;;;;;5110002;28;20015;-74
2023/04/11 09:09:05;;;;;;;10.23;2.00;;;11.10;99.90;;;;;;5108611;28;20073;-74
2023/04/11 09:11:50;;;;;;;10.98;1.77;;;11.20;99.90;;;;;;5102276;28;20015;-74
2023/04/11 09:14:16;;;;;;;11.98;2.13;;;11.20;99.90;;;;;;5110447;28;20020;-74
2023/04/11 09:17:05;;;;;;;11.90;1.75;;;11.30;99.90;;;;;;5111017;28;20030;-73
2023/04/11 09:19:33;;;;;;;13.45;2.15;;;11.40;99.90;;;;;;5101474;28;20269;-74
2023/04/11 09:22:02;;;;;;;12.02;2.17;;;11.50;99.90;;;;;;5105511;28;20056;-74
2023/04/11 09:24:28;;;;;;;12.20;1.85;;;11.60;99.90;;;;;;5102045;28;20063;-74
2023/04/11 09:27:11;;;;;;;16.10;2.25;;;11.70;99.90;;;;;;5085704;28;20490;-74
2023/04/11 09:29:47;;;;;;;9.60;1.88;;;11.80;99.90;;;;;;5100101;28;20020;-74
2023/04/11 09:32:29;;;;;;;15.35;1.95;;;11.90;99.90;;;;;;5079157;28;20036;-74
2023/04/11 09:35:11;;;;;;;11.13;2.15;;;11.90;99.90;;;;;;5102051;28;20026;-74
2023/04/11 09:37:52;;;;;;;14.52;2.30;;;11.90;99.90;;;;;;5112071;28;20032;-74
2023/04/11 09:40:21;;;;;;;11.13;1.73;;;12.00;99.90;;;;;;5101162;28;20422;-74
2023/04/11 09:42:48;;;;;;;9.75;1.65;;;12.00;99.90;;;;;;5112978;28;20031;-74
2023/04/11 09:45:21;;;;;;;12.65;2.17;;;12.10;99.90;;;;;;5094084;28;20032;-73
2023/04/11 09:47:48;;;;;;;12.48;1.98;;;12.10;99.90;;;;;;5108174;28;20056;-74
2023/04/11 09:50:15;;;;;;;12.70;2.20;;;12.10;99.90;;;;;;5113180;28;20035;-74
2023/04/11 09:52:42;;;;;;;14.27;1.98;;;12.20;99.90;;;;;;5111186;28;20429;-74
2023/04/11 09:55:10;;;;;;;12.23;2.30;;;12.40;99.90;;;;;;5112389;28;20027;-74
2023/04/11 09:57:44;;;;;;;12.27;1.98;;;12.40;99.90;;;;;;5111083;28;20031;-73
2023/04/11 10:00:17;;;;;;;10.23;1.75;;;12.50;99.90;;;;;;5112477;28;20028;-73
2023/04/11 10:02:47;;;;;;;12.13;2.15;;;12.60;99.90;;;;;;5111660;28;20031;-74
2023/04/11 10:05:14;;;;;;;12.15;1.90;;;12.70;99.90;;;;;;5112477;28;20232;-74
2023/04/11 10:08:06;;;;;;;12.90;1.98;;;12.60;99.90;;;;;;5113111;28;20106;-74
2023/04/11 10:10:33;;;;;;;10.85;1.80;;;12.50;99.90;;;;;;5111970;28;20042;-74
2023/04/11 10:12:58;;;;;;;12.23;2.25;;;12.40;99.90;;;;;;5112668;28;20073;-74
2023/04/11 10:15:24;;;;;;;10.25;1.60;;;12.30;99.90;;;;;;5110671;28;20507;-74
2023/04/11 10:18:09;;;;;;;10.15;1.67;;;12.30;99.90;;;;;;5093070;28;20050;-74
2023/04/11 10:20:45;;;;;;;;;;;12.20;99.90;;;;;;5107071;28;20432;-74
2023/04/11 10:23:12;;;;;;;12.00;2.10;;;12.20;99.90;;;;;;5108354;28;20002;-74
2023/04/11 10:26:07;;;;;;;13.82;1.75;;;12.20;99.90;;;;;;5106784;28;20250;-74
2023/04/11 10:28:37;;;;;;;12.35;2.15;;;12.20;99.90;;;;;;5094837;28;20130;-74
2023/04/11 10:31:08;;;;;;;13.73;2.65;;;12.30;99.90;;;;;;5094361;28;20031;-74
2023/04/11 10:33:36;;;;;;;16.88;2.08;;;12.40;99.90;;;;;;5106377;28;20105;-74
2023/04/11 10:36:02;;;;;;;7.93;1.80;;;12.50;99.90;;;;;;5107980;28;20024;-74
2023/04/11 10:38:40;;;;;;;11.73;2.40;;;12.50;99.90;;;;;;5105400;28;20023;-75
2023/04/11 10:41:33;;;;;;;11.13;1.90;;;12.50;99.90;;;;;;5093499;28;20470;-75
2023/04/11 10:44:27;;;;;;;15.90;2.17;;;12.50;99.90;;;;;;5101805;28;20032;-74
2023/04/11 10:46:54;;;;;;;10.48;2.03;;;12.50;99.90;;;;;;5059061;28;20402;-75
2023/04/11 10:49:35;;;;;;;13.52;2.00;;;12.70;99.90;;;;;;5102304;28;20032;-74
2023/04/11 10:52:22;;;;;;;13.18;2.50;;;12.90;99.90;;;;;;5112412;28;20486;-74
2023/04/11 10:54:52;;;;;;;14.20;1.83;;;12.90;99.90;;;;;;5098630;28;20044;-73
2023/04/11 10:57:18;;;;;;;12.70;2.05;;;12.90;99.90;;;;;;5111447;28;20359;-74
2023/04/11 10:59:46;;;;;;;11.30;2.38;;;12.80;99.90;;;;;;5112070;28;20023;-74
2023/04/11 11:02:12;;;;;;;9.25;2.00;;;12.80;99.90;;;;;;5110102;28;20044;-73
2023/04/11 11:04:39;;;;;;;10.93;1.98;;;12.80;99.90;;;;;;5111648;28;20037;-73
2023/04/11 11:07:11;;;;;;;12.05;2.05;;;12.80;99.90;;;;;;5109093;28;20024;-73
2023/04/11 11:09:37;;;;;;;10.73;1.70;;;12.80;99.90;;;;;;5103580;28;20035;-73
2023/04/11 11:12:13;;;;;;;8.50;1.67;;;12.90;99.90;;;;;;5104826;28;20459;-73
2023/04/11 11:14:44;;;;;;;10.23;1.98;;;13.00;99.90;;;;;;5091764;28;20031;-73
2023/04/11 11:17:11;;;;;;;10.85;2.15;;;13.10;99.90;;;;;;5095514;28;20032;-73
2023/04/11 11:19:45;;;;;;;12.82;2.20;;;13.20;99.00;;;;;;5111022;28;20022;-73
2023/04/11 11:22:24;;;;;;;11.63;1.88;;;13.20;99.00;;;;;;5103417;28;20479;-73
2023/04/11 11:24:49;;;;;;;11.65;2.10;;;13.10;99.40;;;;;;5105293;28;20035;-74
2023/04/11 11:27:23;;;;;;;14.02;2.42;;;13.10;99.90;;;;;;5092431;28;20028;-73
2023/04/11 11:29:49;;;;;;;15.23;2.60;;;13.20;99.90;;;;;;5096975;28;20375;-74
2023/04/11 11:32:25;;;;;;;14.55;2.50;;;13.40;99.90;;;;;;5092311;28;20062;-73
2023/04/11 11:34:51;;;;;;;18.58;2.65;;;13.50;99.90;;;;;;5105037;28;20032;-74
2023/04/11 11:37:17;;;;;;;14.38;2.35;;;13.50;99.90;;;;;;5101401;28;20103;-73
2023/04/11 11:39:43;;;;;;;15.13;2.13;;;13.40;99.90;;;;;;5110858;28;20107;-73
2023/04/11 11:42:09;;;;;;;17.15;2.55;;;13.30;99.90;;;;;;5110764;28;20053;-73
2023/04/11 11:44:36;;;;;;;12.00;2.42;;;13.30;99.90;;;;;;5099173;28;20038;-73
2023/04/11 11:47:13;;;;;;;18.38;2.60;;;13.40;99.90;;;;;;5103723;28;20460;-73
2023/04/11 11:49:43;;;;;;;14.82;2.75;;;13.60;99.90;;;;;;5103372;28;20027;-73
2023/04/11 11:52:10;;;;;;;13.45;2.03;;;13.60;99.90;;;;;;5097745;28;20055;-73
2023/04/11 11:54:46;;;;;;;19.10;2.72;;;13.50;99.90;;;;;;5107684;28;20023;-74
2023/04/11 11:57:21;;;;;;;17.30;2.58;;;13.50;99.90;;;;;;5110202;28;20424;-74
2023/04/11 11:59:55;;;;;;;15.65;2.40;;;13.30;99.90;;;;;;5106297;28;20024;-73
2023/04/11 12:02:22;;;;;;;20.52;2.63;;;13.20;99.90;;;;;;5109556;27;20375;-74
2023/04/11 12:04:48;;;;;;;12.80;2.55;;;13.20;99.90;;;;;;5100634;28;20027;-74
2023/04/11 12:07:13;;;;;;;14.35;2.10;;;13.20;99.90;;;;;;5106458;28;20051;-74
2023/04/11 12:09:39;;;;;;;16.17;2.70;;;13.30;99.90;;;;;;5107535;28;20112;-73
2023/04/11 12:12:08;;;;;;;13.23;2.30;;;13.50;99.90;;;;;;5103917;28;20032;-74
2023/04/11 12:14:34;;;;;;;13.90;2.08;;;13.50;99.90;;;;;;5107361;28;20019;-73
2023/04/11 12:16:59;;;;;;;13.20;2.55;;;13.60;99.90;;;;;;5107368;28;20027;-73
2023/04/11 12:19:26;;;;;;;10.18;1.83;;;13.70;99.90;;;;;;5107118;28;20462;-73
2023/04/11 12:21:52;;;;;;;7.35;1.58;;;13.90;99.90;;;;;;5094667;28;20386;-74
2023/04/11 12:24:17;;;;;;;9.90;1.98;;;13.80;98.40;;;;;;5091375;28;20020;-74
2023/04/11 12:26:44;;;;;;;13.88;2.00;;;13.90;98.00;;;;;;5099529;28;20402;-73
2023/04/11 12:29:10;;;;;;;8.50;2.00;;;14.00;96.10;;;;;;5110106;28;20156;-74
2023/04/11 12:31:36;;;;;;;11.07;2.20;;;13.90;97.30;;;;;;5106774;28;20757;-74
2023/04/11 12:34:01;;;;;;;16.52;2.35;;;14.00;98.90;;;;;;5101555;28;20459;-74
2023/04/11 12:36:28;;;;;;;12.38;2.03;;;14.10;99.10;;;;;;5099668;28;20279;-74
2023/04/11 12:38:54;;;;;;;11.45;2.33;;;14.20;99.20;;;;;;5100204;28;20027;-74
2023/04/11 12:41:19;;;;;;;13.93;2.90;;;14.20;98.90;;;;;;5109805;28;20027;-74
2023/04/11 12:43:45;;;;;;;12.88;2.72;;;14.30;99.90;;;;;;5110264;28;20110;-74
2023/04/11 12:46:11;;;;;;;11.70;2.42;;;14.30;99.90;;;;;;5108384;28;20075;-74